sensor_id;sensor_type;location;lat;lon;timestamp;pressure;altitude;pressure_sealevel;temperature;humidity
60489;BME280;46331;49.252;8.904;2023-04-03T00:00:23;100633.03;;;2.95;64.37
60489;BME280;46331;49.252;8.904;2023-04-03T00:01:04;100639.41;;;2.92;64.92
60489;BME280;46331;49.252;8.904;2023-04-03T00:01:44;100640.88;;;2.95;65.02
60489;BME280;46331;49.252;8.904;2023-04-03T00:02:48;100640.41;;;2.91;64.80
60489;BME280;46331;49.252;8.904;2023-04-03T00:03:29;100648.09;;;2.93;65.18
60489;BME280;46331;49.252;8.904;2023-04-03T00:04:09;100650.22;;;2.89;64.92
60489;BME280;46331;49.252;8.904;2023-04-03T00:04:50;100645.13;;;2.88;65.50
60489;BME280;46331;49.252;8.904;2023-04-03T00:05:31;100642.69;;;2.86;65.68
60489;BME280;46331;49.252;8.904;2023-04-03T00:06:12;100648.91;;;2.85;65.75
60489;BME280;46331;49.252;8.904;2023-04-03T00:06:52;100646.47;;;2.83;65.77
60489;BME280;46331;49.252;8.904;2023-04-03T00:07:33;100641.56;;;2.80;66.05
60489;BME280;46331;49.252;8.904;2023-04-03T00:08:14;100643.50;;;2.78;66.28
60489;BME280;46331;49.252;8.904;2023-04-03T00:08:55;100643.34;;;2.80;66.20
60489;BME280;46331;49.252;8.904;2023-04-03T00:09:35;100642.69;;;2.78;66.40
60489;BME280;46331;49.252;8.904;2023-04-03T00:10:16;100644.50;;;2.77;67.10
60489;BME280;46331;49.252;8.904;2023-04-03T00:10:57;100636.47;;;2.79;67.01
60489;BME280;46331;49.252;8.904;2023-04-03T00:11:37;100645.94;;;2.80;67.14
60489;BME280;46331;49.252;8.904;2023-04-03T00:12:18;100640.72;;;2.80;67.02
60489;BME280;46331;49.252;8.904;2023-04-03T00:12:58;100641.56;;;2.80;66.97
60489;BME280;46331;49.252;8.904;2023-04-03T00:13:39;100638.94;;;2.80;67.18
60489;BME280;46331;49.252;8.904;2023-04-03T00:14:20;100642.34;;;2.81;67.37
60489;BME280;46331;49.252;8.904;2023-04-03T00:15:01;100636.31;;;2.80;67.51
60489;BME280;46331;49.252;8.904;2023-04-03T00:15:41;100634.16;;;2.84;67.45
60489;BME280;46331;49.252;8.904;2023-04-03T00:16:22;100640.72;;;2.88;67.75
60489;BME280;46331;49.252;8.904;2023-04-03T00:17:02;100638.75;;;2.90;67.61
60489;BME280;46331;49.252;8.904;2023-04-03T00:17:43;100644.00;;;2.90;67.79
60489;BME280;46331;49.252;8.904;2023-04-03T00:18:24;100638.59;;;2.92;67.54
60489;BME280;46331;49.252;8.904;2023-04-03T00:19:05;100633.66;;;2.97;68.22
60489;BME280;46331;49.252;8.904;2023-04-03T00:19:45;100631.56;;;3.00;67.73
60489;BME280;46331;49.252;8.904;2023-04-03T00:20:26;100635.78;;;3.01;67.59
60489;BME280;46331;49.252;8.904;2023-04-03T00:21:09;100636.63;;;3.02;67.64
60489;BME280;46331;49.252;8.904;2023-04-03T00:21:50;100636.63;;;3.02;67.51
60489;BME280;46331;49.252;8.904;2023-04-03T00:22:31;100634.19;;;3.00;67.58
60489;BME280;46331;49.252;8.904;2023-04-03T00:23:11;100641.69;;;2.95;67.81
60489;BME280;46331;49.252;8.904;2023-04-03T00:23:52;100637.28;;;2.96;67.73
60489;BME280;46331;49.252;8.904;2023-04-03T00:24:32;100634.31;;;2.91;68.12
60489;BME280;46331;49.252;8.904;2023-04-03T00:25:13;100636.13;;;2.90;67.73
60489;BME280;46331;49.252;8.904;2023-04-03T00:25:54;100633.03;;;2.86;67.95
60489;BME280;46331;49.252;8.904;2023-04-03T00:26:35;100638.59;;;2.83;68.47
60489;BME280;46331;49.252;8.904;2023-04-03T00:27:16;100636.97;;;2.82;68.49
60489;BME280;46331;49.252;8.904;2023-04-03T00:27:56;100641.88;;;2.77;68.55
60489;BME280;46331;49.252;8.904;2023-04-03T00:28:37;100641.53;;;2.72;69.08
60489;BME280;46331;49.252;8.904;2023-04-03T00:29:18;100636.28;;;2.72;69.20
60489;BME280;46331;49.252;8.904;2023-04-03T00:29:58;100637.44;;;2.70;68.90
60489;BME280;46331;49.252;8.904;2023-04-03T00:30:39;100637.09;;;2.64;69.27
60489;BME280;46331;49.252;8.904;2023-04-03T00:31:19;100639.25;;;2.61;69.46
60489;BME280;46331;49.252;8.904;2023-04-03T00:32:00;100637.25;;;2.63;69.01
60489;BME280;46331;49.252;8.904;2023-04-03T00:32:41;100632.88;;;2.63;69.25
60489;BME280;46331;49.252;8.904;2023-04-03T00:33:21;100628.25;;;2.57;69.36
60489;BME280;46331;49.252;8.904;2023-04-03T00:34:02;100636.94;;;2.58;69.30
60489;BME280;46331;49.252;8.904;2023-04-03T00:34:44;100638.06;;;2.55;69.60
60489;BME280;46331;49.252;8.904;2023-04-03T00:35:25;100642.16;;;2.49;69.91
60489;BME280;46331;49.252;8.904;2023-04-03T00:36:10;100638.72;;;2.49;70.12
60489;BME280;46331;49.252;8.904;2023-04-03T00:36:51;100636.09;;;2.49;70.07
60489;BME280;46331;49.252;8.904;2023-04-03T00:37:32;100634.63;;;2.46;70.03
60489;BME280;46331;49.252;8.904;2023-04-03T00:38:13;100635.63;;;2.45;70.10
60489;BME280;46331;49.252;8.904;2023-04-03T00:38:54;100639.19;;;2.44;70.23
60489;BME280;46331;49.252;8.904;2023-04-03T00:39:35;100636.91;;;2.41;69.98
60489;BME280;46331;49.252;8.904;2023-04-03T00:40:15;100640.16;;;2.35;70.39
60489;BME280;46331;49.252;8.904;2023-04-03T00:40:56;100636.59;;;2.44;70.76
60489;BME280;46331;49.252;8.904;2023-04-03T00:41:37;100631.50;;;2.43;70.27
60489;BME280;46331;49.252;8.904;2023-04-03T00:42:17;100639.53;;;2.41;70.41
60489;BME280;46331;49.252;8.904;2023-04-03T00:42:58;100640.16;;;2.43;70.08
60489;BME280;46331;49.252;8.904;2023-04-03T00:43:39;100628.56;;;2.38;70.19
60489;BME280;46331;49.252;8.904;2023-04-03T00:45:27;100635.91;;;2.34;70.02
60489;BME280;46331;49.252;8.904;2023-04-03T00:46:08;100634.94;;;2.43;70.25
60489;BME280;46331;49.252;8.904;2023-04-03T00:46:48;100631.84;;;2.40;69.94
60489;BME280;46331;49.252;8.904;2023-04-03T00:47:30;100632.63;;;2.40;69.56
60489;BME280;46331;49.252;8.904;2023-04-03T00:48:14;100628.88;;;2.43;70.03
60489;BME280;46331;49.252;8.904;2023-04-03T00:48:56;100627.41;;;2.40;70.12
60489;BME280;46331;49.252;8.904;2023-04-03T00:49:38;100631.50;;;2.43;69.98
60489;BME280;46331;49.252;8.904;2023-04-03T00:50:19;100635.94;;;2.42;69.68
60489;BME280;46331;49.252;8.904;2023-04-03T00:51:00;100630.19;;;2.39;69.82
60489;BME280;46331;49.252;8.904;2023-04-03T00:51:42;100625.09;;;2.37;69.85
60489;BME280;46331;49.252;8.904;2023-04-03T00:52:25;100623.81;;;2.33;69.85
60489;BME280;46331;49.252;8.904;2023-04-03T00:53:16;100626.44;;;2.33;70.08
60489;BME280;46331;49.252;8.904;2023-04-03T00:54:02;100626.28;;;2.35;69.86
60489;BME280;46331;49.252;8.904;2023-04-03T00:54:46;100628.22;;;2.32;70.32
60489;BME280;46331;49.252;8.904;2023-04-03T00:55:27;100627.72;;;2.29;70.23
60489;BME280;46331;49.252;8.904;2023-04-03T00:56:12;100625.28;;;2.36;70.48
60489;BME280;46331;49.252;8.904;2023-04-03T00:56:56;100626.09;;;2.36;70.48
60489;BME280;46331;49.252;8.904;2023-04-03T00:57:37;100621.84;;;2.35;70.41
60489;BME280;46331;49.252;8.904;2023-04-03T00:58:19;100619.72;;;2.39;70.45
60489;BME280;46331;49.252;8.904;2023-04-03T00:59:09;100628.72;;;2.36;70.47
60489;BME280;46331;49.252;8.904;2023-04-03T00:59:54;100626.91;;;2.45;70.54
60489;BME280;46331;49.252;8.904;2023-04-03T01:00:38;100627.09;;;2.43;70.33
60489;BME280;46331;49.252;8.904;2023-04-03T01:01:24;100622.00;;;2.42;70.11
60489;BME280;46331;49.252;8.904;2023-04-03T01:02:05;100626.28;;;2.43;70.34
60489;BME280;46331;49.252;8.904;2023-04-03T01:02:46;100625.47;;;2.42;70.93
60489;BME280;46331;49.252;8.904;2023-04-03T01:03:29;100629.53;;;2.45;70.50
60489;BME280;46331;49.252;8.904;2023-04-03T01:04:28;100635.09;;;2.42;70.95
60489;BME280;46331;49.252;8.904;2023-04-03T01:05:10;100630.38;;;2.45;70.48
60489;BME280;46331;49.252;8.904;2023-04-03T01:05:51;100628.72;;;2.44;70.50
60489;BME280;46331;49.252;8.904;2023-04-03T01:06:35;100619.38;;;2.42;70.34
60489;BME280;46331;49.252;8.904;2023-04-03T01:07:23;100621.84;;;2.43;70.19
60489;BME280;46331;49.252;8.904;2023-04-03T01:08:05;100622.66;;;2.36;70.46
60489;BME280;46331;49.252;8.904;2023-04-03T01:08:48;100622.00;;;2.33;70.44
60489;BME280;46331;49.252;8.904;2023-04-03T01:09:30;100625.09;;;2.29;70.97
60489;BME280;46331;49.252;8.904;2023-04-03T01:10:14;100629.22;;;2.31;70.77
60489;BME280;46331;49.252;8.904;2023-04-03T01:10:56;100626.91;;;2.37;70.72
60489;BME280;46331;49.252;8.904;2023-04-03T01:11:37;100627.06;;;2.35;71.06
60489;BME280;46331;49.252;8.904;2023-04-03T01:12:19;100621.53;;;2.38;71.12
60489;BME280;46331;49.252;8.904;2023-04-03T01:13:01;100633.81;;;2.38;70.77
60489;BME280;46331;49.252;8.904;2023-04-03T01:13:42;100628.41;;;2.39;71.01
60489;BME280;46331;49.252;8.904;2023-04-03T01:14:23;100631.03;;;2.39;70.94
60489;BME280;46331;49.252;8.904;2023-04-03T01:15:16;100624.13;;;2.38;70.92
60489;BME280;46331;49.252;8.904;2023-04-03T01:15:57;100628.88;;;2.35;71.09
60489;BME280;46331;49.252;8.904;2023-04-03T01:16:40;100630.66;;;2.34;70.63
60489;BME280;46331;49.252;8.904;2023-04-03T01:17:37;100629.06;;;2.33;71.21
60489;BME280;46331;49.252;8.904;2023-04-03T01:18:18;100631.34;;;2.36;71.02
60489;BME280;46331;49.252;8.904;2023-04-03T01:19:00;100632.31;;;2.35;70.85
60489;BME280;46331;49.252;8.904;2023-04-03T01:19:47;100630.66;;;2.34;70.88
60489;BME280;46331;49.252;8.904;2023-04-03T01:24:20;100633.59;;;2.23;71.53
60489;BME280;46331;49.252;8.904;2023-04-03T01:25:02;100627.72;;;2.21;71.43
60489;BME280;46331;49.252;8.904;2023-04-03T01:25:46;100625.25;;;2.27;71.27
60489;BME280;46331;49.252;8.904;2023-04-03T01:26:27;100627.88;;;2.27;71.28
60489;BME280;46331;49.252;8.904;2023-04-03T01:27:10;100628.38;;;2.31;71.45
60489;BME280;46331;49.252;8.904;2023-04-03T01:27:51;100629.06;;;2.33;71.22
60489;BME280;46331;49.252;8.904;2023-04-03T01:28:33;100626.44;;;2.33;70.86
60489;BME280;46331;49.252;8.904;2023-04-03T01:29:14;100633.59;;;2.31;70.96
60489;BME280;46331;49.252;8.904;2023-04-03T01:29:56;100631.47;;;2.26;71.09
60489;BME280;46331;49.252;8.904;2023-04-03T01:31:53;100629.50;;;2.20;71.12
60489;BME280;46331;49.252;8.904;2023-04-03T01:32:34;100629.66;;;2.19;71.45
60489;BME280;46331;49.252;8.904;2023-04-03T01:33:15;100624.94;;;2.22;71.19
60489;BME280;46331;49.252;8.904;2023-04-03T01:33:55;100635.88;;;2.26;71.40
60489;BME280;46331;49.252;8.904;2023-04-03T01:34:36;100632.25;;;2.19;71.27
60489;BME280;46331;49.252;8.904;2023-04-03T01:35:18;100637.03;;;2.23;71.35
60489;BME280;46331;49.252;8.904;2023-04-03T01:35:59;100628.53;;;2.21;71.14
60489;BME280;46331;49.252;8.904;2023-04-03T01:36:40;100637.03;;;2.23;71.41
60489;BME280;46331;49.252;8.904;2023-04-03T01:37:21;100637.53;;;2.27;71.06
60489;BME280;46331;49.252;8.904;2023-04-03T01:38:01;100640.81;;;2.29;71.18
60489;BME280;46331;49.252;8.904;2023-04-03T01:38:42;100639.31;;;2.26;71.25
60489;BME280;46331;49.252;8.904;2023-04-03T01:39:23;100637.22;;;2.30;70.85
60489;BME280;46331;49.252;8.904;2023-04-03T01:40:04;100631.97;;;2.30;71.48
60489;BME280;46331;49.252;8.904;2023-04-03T01:40:46;100630.00;;;2.32;71.49
60489;BME280;46331;49.252;8.904;2023-04-03T01:41:27;100641.28;;;2.32;71.02
60489;BME280;46331;49.252;8.904;2023-04-03T01:42:13;100637.72;;;2.33;70.97
60489;BME280;46331;49.252;8.904;2023-04-03T01:42:56;100640.16;;;2.35;71.34
60489;BME280;46331;49.252;8.904;2023-04-03T01:43:37;100635.91;;;2.34;71.05
60489;BME280;46331;49.252;8.904;2023-04-03T01:44:18;100640.81;;;2.37;70.70
60489;BME280;46331;49.252;8.904;2023-04-03T01:44:59;100641.44;;;2.31;70.63
60489;BME280;46331;49.252;8.904;2023-04-03T01:45:39;100645.88;;;2.30;71.38
60489;BME280;46331;49.252;8.904;2023-04-03T01:46:21;100639.69;;;2.31;71.04
60489;BME280;46331;49.252;8.904;2023-04-03T01:47:05;100640.50;;;2.32;71.30
60489;BME280;46331;49.252;8.904;2023-04-03T01:47:46;100644.41;;;2.28;71.04
60489;BME280;46331;49.252;8.904;2023-04-03T01:48:27;100650.78;;;2.25;71.15
60489;BME280;46331;49.252;8.904;2023-04-03T01:49:09;100648.50;;;2.22;71.45
60489;BME280;46331;49.252;8.904;2023-04-03T01:49:49;100651.09;;;2.22;71.23
60489;BME280;46331;49.252;8.904;2023-04-03T01:50:30;100642.88;;;2.17;71.19
60489;BME280;46331;49.252;8.904;2023-04-03T01:51:11;100647.97;;;2.19;71.35
60489;BME280;46331;49.252;8.904;2023-04-03T01:51:51;100649.94;;;2.17;71.26
60489;BME280;46331;49.252;8.904;2023-04-03T01:52:32;100639.47;;;2.17;71.71
60489;BME280;46331;49.252;8.904;2023-04-03T01:53:12;100641.13;;;2.18;71.37
60489;BME280;46331;49.252;8.904;2023-04-03T01:53:53;100647.47;;;2.15;71.62
60489;BME280;46331;49.252;8.904;2023-04-03T01:54:34;100647.47;;;2.15;71.58
60489;BME280;46331;49.252;8.904;2023-04-03T01:55:15;100645.19;;;2.12;71.42
60489;BME280;46331;49.252;8.904;2023-04-03T01:55:55;100646.81;;;2.13;71.83
60489;BME280;46331;49.252;8.904;2023-04-03T01:56:36;100643.84;;;2.08;71.74
60489;BME280;46331;49.252;8.904;2023-04-03T01:57:16;100652.53;;;2.08;71.34
60489;BME280;46331;49.252;8.904;2023-04-03T01:57:57;100652.22;;;2.11;71.52
60489;BME280;46331;49.252;8.904;2023-04-03T01:58:38;100647.31;;;2.08;71.53
60489;BME280;46331;49.252;8.904;2023-04-03T01:59:19;100643.84;;;2.08;71.49
60489;BME280;46331;49.252;8.904;2023-04-03T01:59:59;100650.25;;;2.13;71.33
60489;BME280;46331;49.252;8.904;2023-04-03T02:00:40;100647.78;;;2.12;71.16
60489;BME280;46331;49.252;8.904;2023-04-03T02:01:21;100642.25;;;2.15;71.12
60489;BME280;46331;49.252;8.904;2023-04-03T02:02:02;100650.75;;;2.17;71.12
60489;BME280;46331;49.252;8.904;2023-04-03T02:02:42;100654.03;;;2.19;70.90
60489;BME280;46331;49.252;8.904;2023-04-03T02:03:23;100652.56;;;2.17;70.94
60489;BME280;46331;49.252;8.904;2023-04-03T02:04:03;100648.97;;;2.18;70.86
60489;BME280;46331;49.252;8.904;2023-04-03T02:04:44;100643.56;;;2.19;71.19
60489;BME280;46331;49.252;8.904;2023-04-03T02:05:25;100654.69;;;2.21;70.79
60489;BME280;46331;49.252;8.904;2023-04-03T02:06:05;100651.91;;;2.23;71.17
60489;BME280;46331;49.252;8.904;2023-04-03T02:06:46;100651.91;;;2.23;70.76
60489;BME280;46331;49.252;8.904;2023-04-03T02:07:26;100647.00;;;2.28;71.11
60489;BME280;46331;49.252;8.904;2023-04-03T02:08:07;100653.41;;;2.25;70.94
60489;BME280;46331;49.252;8.904;2023-04-03T02:08:49;100658.97;;;2.22;70.92
60489;BME280;46331;49.252;8.904;2023-04-03T02:09:29;100657.00;;;2.24;70.92
60489;BME280;46331;49.252;8.904;2023-04-03T02:10:10;100657.78;;;2.25;70.75
60489;BME280;46331;49.252;8.904;2023-04-03T02:10:51;100658.28;;;2.20;71.14
60489;BME280;46331;49.252;8.904;2023-04-03T02:11:32;100665.00;;;2.23;70.94
60489;BME280;46331;49.252;8.904;2023-04-03T02:12:12;100661.25;;;2.25;70.68
60489;BME280;46331;49.252;8.904;2023-04-03T02:12:53;100663.72;;;2.27;70.85
60489;BME280;46331;49.252;8.904;2023-04-03T02:13:33;100662.88;;;2.26;70.66
60489;BME280;46331;49.252;8.904;2023-04-03T02:14:14;100662.53;;;2.21;71.40
60489;BME280;46331;49.252;8.904;2023-04-03T02:14:55;100661.25;;;2.25;71.22
60489;BME280;46331;49.252;8.904;2023-04-03T02:15:38;100662.06;;;2.26;71.14
60489;BME280;46331;49.252;8.904;2023-04-03T02:16:18;100665.50;;;2.26;71.29
60489;BME280;46331;49.252;8.904;2023-04-03T02:17:00;100677.44;;;2.29;71.29
60489;BME280;46331;49.252;8.904;2023-04-03T02:17:45;100669.59;;;2.29;70.91
60489;BME280;46331;49.252;8.904;2023-04-03T02:18:25;100674.84;;;2.29;71.11
60489;BME280;46331;49.252;8.904;2023-04-03T02:19:06;100674.34;;;2.25;71.17
60489;BME280;46331;49.252;8.904;2023-04-03T02:19:47;100673.69;;;2.31;71.33
60489;BME280;46331;49.252;8.904;2023-04-03T02:20:28;100673.22;;;2.44;71.04
60489;BME280;46331;49.252;8.904;2023-04-03T02:21:08;100667.19;;;2.52;70.84
60489;BME280;46331;49.252;8.904;2023-04-03T02:21:49;100674.88;;;2.54;70.62
60489;BME280;46331;49.252;8.904;2023-04-03T02:22:29;100669.00;;;2.60;70.57
60489;BME280;46331;49.252;8.904;2023-04-03T02:23:10;100665.09;;;2.64;70.17
60489;BME280;46331;49.252;8.904;2023-04-03T02:23:51;100664.63;;;2.68;69.98
60489;BME280;46331;49.252;8.904;2023-04-03T02:24:33;100669.38;;;2.73;70.20
60489;BME280;46331;49.252;8.904;2023-04-03T02:25:14;100667.41;;;2.75;69.92
60489;BME280;46331;49.252;8.904;2023-04-03T02:26:06;100671.19;;;2.81;70.01
60489;BME280;46331;49.252;8.904;2023-04-03T02:26:47;100672.31;;;2.78;69.35
60489;BME280;46331;49.252;8.904;2023-04-03T02:27:28;100676.09;;;2.84;69.31
60489;BME280;46331;49.252;8.904;2023-04-03T02:28:08;100665.94;;;2.89;69.29
60489;BME280;46331;49.252;8.904;2023-04-03T02:28:49;100664.16;;;2.90;69.21
60489;BME280;46331;49.252;8.904;2023-04-03T02:29:29;100672.50;;;2.93;69.19
60489;BME280;46331;49.252;8.904;2023-04-03T02:30:10;100666.59;;;2.91;69.49
60489;BME280;46331;49.252;8.904;2023-04-03T02:30:51;100670.34;;;2.97;69.36
60489;BME280;46331;49.252;8.904;2023-04-03T02:31:31;100667.41;;;3.00;69.14
60489;BME280;46331;49.252;8.904;2023-04-03T02:32:14;100665.78;;;3.07;68.97
60489;BME280;46331;49.252;8.904;2023-04-03T02:32:55;100658.88;;;3.06;68.64
60489;BME280;46331;49.252;8.904;2023-04-03T02:33:36;100668.72;;;3.04;68.47
60489;BME280;46331;49.252;8.904;2023-04-03T02:34:18;100672.34;;;3.11;68.61
60489;BME280;46331;49.252;8.904;2023-04-03T02:35:00;100664.16;;;3.14;68.60
60489;BME280;46331;49.252;8.904;2023-04-03T02:35:40;100665.59;;;3.17;68.63
60489;BME280;46331;49.252;8.904;2023-04-03T02:36:21;100672.66;;;3.16;68.64
60489;BME280;46331;49.252;8.904;2023-04-03T02:37:07;100664.63;;;3.18;68.12
60489;BME280;46331;49.252;8.904;2023-04-03T02:37:47;100665.59;;;3.17;68.37
60489;BME280;46331;49.252;8.904;2023-04-03T02:38:28;100666.75;;;3.22;68.53
60489;BME280;46331;49.252;8.904;2023-04-03T02:39:09;100663.16;;;3.24;68.07
60489;BME280;46331;49.252;8.904;2023-04-03T02:39:50;100665.59;;;3.25;68.28
60489;BME280;46331;49.252;8.904;2023-04-03T02:40:31;100668.06;;;3.18;68.30
60489;BME280;46331;49.252;8.904;2023-04-03T02:41:12;100654.28;;;3.25;67.96
60489;BME280;46331;49.252;8.904;2023-04-03T02:41:53;100663.47;;;3.29;67.76
60489;BME280;46331;49.252;8.904;2023-04-03T02:42:37;100665.09;;;3.30;67.89
60489;BME280;46331;49.252;8.904;2023-04-03T02:43:19;100657.25;;;3.30;67.76
60489;BME280;46331;49.252;8.904;2023-04-03T02:44:01;100659.88;;;3.30;68.06
60489;BME280;46331;49.252;8.904;2023-04-03T02:44:42;100662.66;;;3.28;67.59
60489;BME280;46331;49.252;8.904;2023-04-03T02:45:23;100661.31;;;3.32;68.07
60489;BME280;46331;49.252;8.904;2023-04-03T02:46:05;100657.06;;;3.39;67.45
60489;BME280;46331;49.252;8.904;2023-04-03T02:46:45;100655.41;;;3.38;67.32
60489;BME280;46331;49.252;8.904;2023-04-03T02:47:27;100657.88;;;3.40;67.36
60489;BME280;46331;49.252;8.904;2023-04-03T02:48:08;100651.00;;;3.39;67.24
60489;BME280;46331;49.252;8.904;2023-04-03T02:48:49;100663.28;;;3.38;66.87
60489;BME280;46331;49.252;8.904;2023-04-03T02:49:30;100663.13;;;3.48;66.82
60489;BME280;46331;49.252;8.904;2023-04-03T02:50:10;100660.66;;;3.47;66.60
60489;BME280;46331;49.252;8.904;2023-04-03T02:50:51;100663.78;;;3.42;66.49
60489;BME280;46331;49.252;8.904;2023-04-03T02:51:32;100656.22;;;3.47;66.62
60489;BME280;46331;49.252;8.904;2023-04-03T02:52:14;100660.16;;;3.51;66.80
60489;BME280;46331;49.252;8.904;2023-04-03T02:52:54;100661.78;;;3.52;66.64
60489;BME280;46331;49.252;8.904;2023-04-03T02:53:35;100667.19;;;3.51;66.70
60489;BME280;46331;49.252;8.904;2023-04-03T02:54:23;100661.47;;;3.47;66.33
60489;BME280;46331;49.252;8.904;2023-04-03T02:55:07;100660.00;;;3.45;66.64
60489;BME280;46331;49.252;8.904;2023-04-03T02:55:48;100654.25;;;3.49;67.10
60489;BME280;46331;49.252;8.904;2023-04-03T02:56:29;100660.66;;;3.47;66.78
60489;BME280;46331;49.252;8.904;2023-04-03T02:57:09;100660.50;;;3.48;66.88
60489;BME280;46331;49.252;8.904;2023-04-03T02:57:50;100655.91;;;3.42;67.19
60489;BME280;46331;49.252;8.904;2023-04-03T02:58:31;100656.22;;;3.47;66.85
60489;BME280;46331;49.252;8.904;2023-04-03T02:59:13;100660.16;;;3.51;66.64
60489;BME280;46331;49.252;8.904;2023-04-03T02:59:55;100658.34;;;3.52;66.45
60489;BME280;46331;49.252;8.904;2023-04-03T03:00:35;100655.56;;;3.53;66.40
60489;BME280;46331;49.252;8.904;2023-04-03T03:01:16;100654.41;;;3.56;66.46
60489;BME280;46331;49.252;8.904;2023-04-03T03:01:56;100661.94;;;3.59;66.42
60489;BME280;46331;49.252;8.904;2023-04-03T03:02:37;100659.81;;;3.54;66.19
60489;BME280;46331;49.252;8.904;2023-04-03T03:03:18;100661.09;;;3.58;66.39
60489;BME280;46331;49.252;8.904;2023-04-03T03:03:59;100659.50;;;3.57;66.49
60489;BME280;46331;49.252;8.904;2023-04-03T03:04:40;100661.78;;;3.61;65.76
60489;BME280;46331;49.252;8.904;2023-04-03T03:05:21;100661.59;;;3.62;66.15
60489;BME280;46331;49.252;8.904;2023-04-03T03:06:13;100665.84;;;3.63;66.08
60489;BME280;46331;49.252;8.904;2023-04-03T03:06:54;100657.81;;;3.65;65.70
60489;BME280;46331;49.252;8.904;2023-04-03T03:07:35;100656.38;;;3.62;65.26
60489;BME280;46331;49.252;8.904;2023-04-03T03:08:15;100651.41;;;3.67;65.44
60489;BME280;46331;49.252;8.904;2023-04-03T03:08:56;100658.13;;;3.70;65.28
60489;BME280;46331;49.252;8.904;2023-04-03T03:09:38;100651.25;;;3.69;64.88
60489;BME280;46331;49.252;8.904;2023-04-03T03:10:19;100654.84;;;3.76;65.09
60489;BME280;46331;49.252;8.904;2023-04-03T03:11:00;100652.22;;;3.68;64.48
60489;BME280;46331;49.252;8.904;2023-04-03T03:11:42;100649.94;;;3.73;64.87
60489;BME280;46331;49.252;8.904;2023-04-03T03:12:22;100654.00;;;3.75;64.79
60489;BME280;46331;49.252;8.904;2023-04-03T03:13:04;100647.94;;;3.75;64.65
60489;BME280;46331;49.252;8.904;2023-04-03T03:13:45;100647.59;;;3.78;65.07
60489;BME280;46331;49.252;8.904;2023-04-03T03:14:25;100653.50;;;3.80;65.08
60489;BME280;46331;49.252;8.904;2023-04-03T03:15:07;100654.97;;;3.83;65.17
60489;BME280;46331;49.252;8.904;2023-04-03T03:15:47;100647.91;;;3.83;65.02
60489;BME280;46331;49.252;8.904;2023-04-03T03:16:28;100651.38;;;3.84;64.93
60489;BME280;46331;49.252;8.904;2023-04-03T03:17:10;100646.28;;;3.82;65.29
60489;BME280;46331;49.252;8.904;2023-04-03T03:17:51;100650.53;;;3.83;66.92
60489;BME280;46331;49.252;8.904;2023-04-03T03:18:31;100642.50;;;3.85;65.37
60489;BME280;46331;49.252;8.904;2023-04-03T03:19:12;100638.41;;;3.82;64.99
60489;BME280;46331;49.252;8.904;2023-04-03T03:19:53;100642.50;;;3.85;64.55
60489;BME280;46331;49.252;8.904;2023-04-03T03:20:33;100636.28;;;3.86;63.77
60489;BME280;46331;49.252;8.904;2023-04-03T03:21:14;100642.66;;;3.83;63.60
60489;BME280;46331;49.252;8.904;2023-04-03T03:21:55;100638.09;;;3.77;64.09
60489;BME280;46331;49.252;8.904;2023-04-03T03:22:37;100639.09;;;3.76;64.21
60489;BME280;46331;49.252;8.904;2023-04-03T03:23:18;100642.56;;;3.68;64.31
60489;BME280;46331;49.252;8.904;2023-04-03T03:23:59;100635.84;;;3.66;64.25
60489;BME280;46331;49.252;8.904;2023-04-03T03:24:40;100645.19;;;3.60;63.77
60489;BME280;46331;49.252;8.904;2023-04-03T03:25:21;100635.88;;;3.57;64.21
60489;BME280;46331;49.252;8.904;2023-04-03T03:26:06;100634.91;;;3.50;64.14
60489;BME280;46331;49.252;8.904;2023-04-03T03:26:48;100642.47;;;3.37;63.88
60489;BME280;46331;49.252;8.904;2023-04-03T03:27:29;100634.94;;;3.34;64.43
60489;BME280;46331;49.252;8.904;2023-04-03T03:28:09;100643.63;;;3.26;64.63
60489;BME280;46331;49.252;8.904;2023-04-03T03:28:51;100639.72;;;3.22;64.63
60489;BME280;46331;49.252;8.904;2023-04-03T03:29:32;100635.66;;;3.11;65.07
60489;BME280;46331;49.252;8.904;2023-04-03T03:30:12;100645.13;;;3.04;65.97
60489;BME280;46331;49.252;8.904;2023-04-03T03:30:53;100646.13;;;3.03;66.40
60489;BME280;46331;49.252;8.904;2023-04-03T03:31:34;100643.34;;;2.96;66.33
60489;BME280;46331;49.252;8.904;2023-04-03T03:32:15;100635.97;;;2.92;66.58
60489;BME280;46331;49.252;8.904;2023-04-03T03:32:56;100646.13;;;2.86;66.94
60489;BME280;46331;49.252;8.904;2023-04-03T03:33:36;100648.41;;;2.81;66.92
60489;BME280;46331;49.252;8.904;2023-04-03T03:34:17;100645.63;;;2.75;67.43
60489;BME280;46331;49.252;8.904;2023-04-03T03:34:58;100651.19;;;2.72;67.38
60489;BME280;46331;49.252;8.904;2023-04-03T03:35:38;100648.41;;;2.65;67.77
60489;BME280;46331;49.252;8.904;2023-04-03T03:36:19;100650.84;;;2.58;67.75
60489;BME280;46331;49.252;8.904;2023-04-03T03:36:59;100651.97;;;2.56;68.06
60489;BME280;46331;49.252;8.904;2023-04-03T03:37:40;100655.06;;;2.51;68.44
60489;BME280;46331;49.252;8.904;2023-04-03T03:38:21;100654.25;;;2.42;68.62
60489;BME280;46331;49.252;8.904;2023-04-03T03:39:02;100654.09;;;2.44;69.12
60489;BME280;46331;49.252;8.904;2023-04-03T03:39:43;100648.34;;;2.40;69.10
60489;BME280;46331;49.252;8.904;2023-04-03T03:40:24;100655.72;;;2.37;69.21
60489;BME280;46331;49.252;8.904;2023-04-03T03:41:04;100647.38;;;2.33;69.03
60489;BME280;46331;49.252;8.904;2023-04-03T03:41:47;100654.84;;;2.28;69.50
60489;BME280;46331;49.252;8.904;2023-04-03T03:42:29;100654.69;;;2.21;69.63
60489;BME280;46331;49.252;8.904;2023-04-03T03:43:10;100650.44;;;2.20;69.86
60489;BME280;46331;49.252;8.904;2023-04-03T03:43:50;100656.97;;;2.16;70.27
60489;BME280;46331;49.252;8.904;2023-04-03T03:44:31;100654.84;;;2.11;70.04
60489;BME280;46331;49.252;8.904;2023-04-03T03:45:12;100652.38;;;2.10;70.48
60489;BME280;46331;49.252;8.904;2023-04-03T03:45:52;100659.69;;;2.06;70.63
60489;BME280;46331;49.252;8.904;2023-04-03T03:46:33;100661.50;;;2.06;70.68